createdAt,value
2023-02-13T00:01:07.348Z,7.80
2023-02-13T00:03:40.370Z,7.80
2023-02-13T00:06:14.336Z,7.80
2023-02-13T00:08:41.178Z,7.70
2023-02-13T00:11:14.401Z,7.70
2023-02-13T00:13:41.563Z,7.70
2023-02-13T00:16:16.435Z,7.70
2023-02-13T00:18:50.328Z,7.70
2023-02-13T00:21:17.088Z,7.80
2023-02-13T00:23:44.430Z,7.80
2023-02-13T00:26:19.549Z,7.70
2023-02-13T00:28:46.590Z,7.70
2023-02-13T00:31:16.875Z,7.70
2023-02-13T00:33:50.399Z,7.80
2023-02-13T00:36:20.488Z,7.70
2023-02-13T00:38:47.847Z,7.80
2023-02-13T00:41:23.362Z,7.70
2023-02-13T00:43:50.388Z,7.70
2023-02-13T00:46:24.494Z,7.70
2023-02-13T00:48:57.454Z,7.70
2023-02-13T00:51:24.341Z,7.70
2023-02-13T00:53:57.439Z,7.70
2023-02-13T00:56:30.404Z,7.70
2023-02-13T00:59:03.496Z,7.70
2023-02-13T01:01:36.472Z,7.70
2023-02-13T01:04:10.425Z,7.70
2023-02-13T01:06:37.200Z,7.70
2023-02-13T01:09:11.458Z,7.70
2023-02-13T01:11:44.438Z,7.70
2023-02-13T01:14:11.210Z,7.70
2023-02-13T01:16:44.458Z,7.70
2023-02-13T01:19:11.269Z,7.70
2023-02-13T01:21:44.512Z,7.70
2023-02-13T01:24:11.734Z,7.70
2023-02-13T01:26:45.510Z,7.70
2023-02-13T01:29:13.642Z,7.70
2023-02-13T01:31:47.556Z,7.70
2023-02-13T01:34:14.399Z,7.70
2023-02-13T01:36:47.463Z,7.70
2023-02-13T01:39:14.227Z,7.70
2023-02-13T01:41:41.105Z,7.70
2023-02-13T01:44:52.567Z,7.70
2023-02-13T01:47:33.580Z,7.70
2023-02-13T01:50:22.520Z,7.70
2023-02-13T01:53:14.356Z,7.70
2023-02-13T01:56:02.580Z,7.70
2023-02-13T01:58:35.644Z,7.70
2023-02-13T02:01:10.556Z,7.70
2023-02-13T02:04:06.571Z,7.70
2023-02-13T02:06:50.529Z,7.70
2023-02-13T02:09:21.367Z,7.60
2023-02-13T02:12:09.524Z,7.70
2023-02-13T02:14:36.957Z,7.60
2023-02-13T02:17:10.626Z,7.60
2023-02-13T02:20:03.175Z,7.60
2023-02-13T02:22:54.603Z,7.60
2023-02-13T02:25:58.238Z,7.60
2023-02-13T02:28:58.534Z,7.60
2023-02-13T02:31:44.095Z,7.60
2023-02-13T02:34:42.601Z,7.70
2023-02-13T02:37:24.274Z,7.60
2023-02-13T02:39:57.585Z,7.60
2023-02-13T02:42:51.569Z,7.60
2023-02-13T02:45:47.615Z,7.60
2023-02-13T02:48:59.957Z,7.60
2023-02-13T02:52:03.786Z,7.60
2023-02-13T02:55:04.603Z,7.70
2023-02-13T02:57:58.684Z,7.60
2023-02-13T03:00:45.442Z,7.60
2023-02-13T03:03:56.656Z,7.70
2023-02-13T03:06:43.677Z,7.70
2023-02-13T03:09:44.733Z,7.60
2023-02-13T03:12:45.648Z,7.60
2023-02-13T03:15:18.617Z,7.60
2023-02-13T03:18:10.842Z,7.60
2023-02-13T03:21:19.694Z,7.70
2023-02-13T03:23:53.268Z,7.60
2023-02-13T03:26:56.640Z,7.60
2023-02-13T03:30:00.305Z,7.60
2023-02-13T03:33:01.801Z,7.60
2023-02-13T03:36:11.652Z,7.60
2023-02-13T03:39:14.640Z,7.60
2023-02-13T03:41:57.702Z,7.60
2023-02-13T03:44:36.966Z,7.60
2023-02-13T03:47:12.668Z,7.60
2023-02-13T03:50:13.719Z,7.60
2023-02-13T03:52:56.626Z,7.60
2023-02-13T03:55:54.717Z,7.60
2023-02-13T03:58:45.724Z,7.60
2023-02-13T04:01:21.721Z,7.50
2023-02-13T04:03:54.665Z,7.60
2023-02-13T04:06:37.689Z,7.60
2023-02-13T04:09:10.711Z,7.60
2023-02-13T04:12:04.572Z,7.60
2023-02-13T04:14:52.708Z,7.50
2023-02-13T04:17:38.704Z,7.50
2023-02-13T04:20:07.289Z,7.50
2023-02-13T04:22:40.789Z,7.50
2023-02-13T04:25:14.691Z,7.50
2023-02-13T04:27:47.802Z,7.50
2023-02-13T04:30:14.963Z,7.50
2023-02-13T04:32:48.873Z,7.60
2023-02-13T04:35:15.824Z,7.60
2023-02-13T04:37:48.729Z,7.50
2023-02-13T04:40:15.690Z,7.50
2023-02-13T04:42:42.449Z,7.50
2023-02-13T04:45:16.732Z,7.50
2023-02-13T04:47:43.904Z,7.50
2023-02-13T04:50:17.832Z,7.50
2023-02-13T04:52:44.706Z,7.50
2023-02-13T04:55:17.778Z,7.50
2023-02-13T04:57:44.509Z,7.50
2023-02-13T05:00:12.176Z,7.50
2023-02-13T05:02:45.796Z,7.50
2023-02-13T05:05:18.854Z,7.50
2023-02-13T05:07:45.962Z,7.50
2023-02-13T05:10:14.758Z,7.40
2023-02-13T05:12:47.886Z,7.40
2023-02-13T05:15:14.696Z,7.40
2023-02-13T05:17:50.810Z,7.40
2023-02-13T05:20:17.852Z,7.40
2023-02-13T05:23:14.848Z,7.40
2023-02-13T05:25:42.277Z,7.40
2023-02-13T05:28:35.928Z,7.50
2023-02-13T05:31:03.056Z,7.50
2023-02-13T05:33:36.897Z,7.50
2023-02-13T05:36:03.800Z,7.50
2023-02-13T05:38:36.923Z,7.50
2023-02-13T05:41:03.827Z,7.50
2023-02-13T05:43:30.878Z,7.40
2023-02-13T05:46:12.937Z,7.50
2023-02-13T05:48:39.814Z,7.50
2023-02-13T05:51:06.665Z,7.50
2023-02-13T05:53:42.894Z,7.50
2023-02-13T05:56:09.656Z,7.50
2023-02-13T05:58:43.939Z,7.50
2023-02-13T06:01:10.992Z,7.50
2023-02-13T06:03:37.826Z,7.50
2023-02-13T06:06:12.887Z,7.50
2023-02-13T06:08:39.759Z,7.50
2023-02-13T06:11:13.956Z,7.50
2023-02-13T06:13:40.922Z,7.50
2023-02-13T06:16:15.966Z,7.50
2023-02-13T06:18:43.057Z,7.50
2023-02-13T06:21:15.949Z,7.60
2023-02-13T06:23:43.011Z,7.50
2023-02-13T06:26:10.531Z,7.60
2023-02-13T06:28:44.042Z,7.60
2023-02-13T06:31:10.915Z,7.60
2023-02-13T06:33:44.006Z,7.60
2023-02-13T06:36:10.745Z,7.60
2023-02-13T06:38:43.947Z,7.60
2023-02-13T06:41:16.927Z,7.60
2023-02-13T06:43:43.761Z,7.60
2023-02-13T06:46:16.995Z,7.60
2023-02-13T06:48:43.714Z,7.60
2023-02-13T06:51:17.031Z,7.60
2023-02-13T06:53:49.979Z,7.60
2023-02-13T06:56:22.971Z,7.60
2023-02-13T06:58:56.057Z,7.60
2023-02-13T07:01:28.937Z,7.60
2023-02-13T07:04:01.986Z,7.60
2023-02-13T07:06:35.974Z,7.50
2023-02-13T07:09:10.049Z,7.40
2023-02-13T07:11:44.978Z,7.40
2023-02-13T07:14:18.575Z,7.30
2023-02-13T07:16:52.001Z,7.20
2023-02-13T07:19:19.034Z,7.10
2023-02-13T07:21:52.068Z,7.00
2023-02-13T07:24:25.056Z,6.90
2023-02-13T07:26:58.041Z,6.90
2023-02-13T07:29:24.944Z,6.80
2023-02-13T07:31:58.088Z,6.80
2023-02-13T07:34:24.934Z,6.80
2023-02-13T07:37:01.097Z,6.70
2023-02-13T07:39:27.890Z,6.70
2023-02-13T07:42:02.047Z,6.70
2023-02-13T07:44:28.817Z,6.70
2023-02-13T07:47:02.114Z,6.70
2023-02-13T07:49:29.022Z,6.70
2023-02-13T07:52:05.473Z,6.70
2023-02-13T07:54:32.485Z,6.70
2023-02-13T07:56:59.814Z,6.80
2023-02-13T07:59:33.075Z,6.80
2023-02-13T08:02:06.107Z,6.80
2023-02-13T08:04:39.426Z,6.80
2023-02-13T08:07:13.172Z,6.80
2023-02-13T08:09:58.540Z,6.90
2023-02-13T08:12:32.082Z,6.90
2023-02-13T08:14:58.949Z,6.90
2023-02-13T08:17:32.158Z,6.90
2023-02-13T08:19:58.989Z,6.90
2023-02-13T08:22:32.097Z,7.00
2023-02-13T08:25:05.280Z,7.00
2023-02-13T08:27:32.469Z,7.00
2023-02-13T08:30:06.233Z,7.10
2023-02-13T08:32:53.153Z,7.10
2023-02-13T08:35:28.164Z,7.10
2023-02-13T08:37:55.125Z,7.10
2023-02-13T08:40:28.185Z,7.20
2023-02-13T08:43:10.162Z,7.20
2023-02-13T08:45:37.524Z,7.20
2023-02-13T08:48:04.437Z,7.20
2023-02-13T08:50:38.166Z,7.30
2023-02-13T08:53:12.217Z,7.30
2023-02-13T08:55:45.173Z,7.30
2023-02-13T08:58:18.196Z,7.40
2023-02-13T09:00:45.089Z,7.40
2023-02-13T09:03:19.162Z,7.40
2023-02-13T09:05:46.044Z,7.50
2023-02-13T09:08:20.297Z,7.50
2023-02-13T09:10:47.199Z,7.60
2023-02-13T09:13:27.199Z,7.60
2023-02-13T09:16:00.434Z,7.70
2023-02-13T09:18:28.362Z,7.90
2023-02-13T09:21:13.194Z,8.00
2023-02-13T09:23:41.153Z,8.20
2023-02-13T09:26:20.866Z,8.30
2023-02-13T09:28:48.063Z,8.40
2023-02-13T09:31:24.443Z,8.50
2023-02-13T09:33:51.470Z,8.50
2023-02-13T09:36:27.255Z,8.60
2023-02-13T09:38:55.776Z,8.70
2023-02-13T09:41:35.225Z,8.80
2023-02-13T09:44:18.272Z,8.90
2023-02-13T09:46:51.271Z,9.00
2023-02-13T09:49:24.638Z,9.00
2023-02-13T09:52:03.306Z,9.10
2023-02-13T09:54:32.110Z,9.20
2023-02-13T09:57:14.301Z,9.30
2023-02-13T10:00:04.279Z,9.30
2023-02-13T10:02:58.244Z,9.30
2023-02-13T10:05:43.279Z,9.40
2023-02-13T10:08:10.081Z,9.40
2023-02-13T10:10:46.337Z,9.50
2023-02-13T10:13:23.600Z,9.50
2023-02-13T10:16:04.410Z,9.50
2023-02-13T10:18:57.482Z,9.50
2023-02-13T10:21:39.291Z,9.70
2023-02-13T10:24:18.070Z,9.80
2023-02-13T10:26:54.317Z,9.80
2023-02-13T10:30:12.352Z,9.80
2023-02-13T10:32:45.869Z,9.90
2023-02-13T10:35:38.296Z,10.00
2023-02-13T10:38:16.076Z,10.10
2023-02-13T10:41:14.326Z,10.10
2023-02-13T10:44:17.355Z,10.20
2023-02-13T10:46:55.982Z,10.30
2023-02-13T10:50:07.325Z,10.40
2023-02-13T10:52:46.117Z,10.50
2023-02-13T10:55:46.322Z,10.60
2023-02-13T10:58:50.345Z,10.90
2023-02-13T11:01:55.469Z,11.00
2023-02-13T11:04:23.981Z,11.00
2023-02-13T11:07:04.377Z,11.00
2023-02-13T11:09:36.965Z,11.00
2023-02-13T11:12:34.435Z,11.10
2023-02-13T11:15:03.845Z,11.20
2023-02-13T11:17:42.388Z,11.30
2023-02-13T11:20:34.763Z,11.30
2023-02-13T11:23:24.489Z,11.20
2023-02-13T11:26:32.433Z,11.30
2023-02-13T11:29:24.419Z,11.30
2023-02-13T11:32:10.508Z,11.40
2023-02-13T11:34:37.380Z,11.50
2023-02-13T11:37:19.403Z,11.50
2023-02-13T11:39:51.050Z,11.50
2023-02-13T11:42:42.599Z,11.50
2023-02-13T11:45:26.373Z,11.60
2023-02-13T11:48:01.521Z,11.60
2023-02-13T11:50:43.499Z,11.70
2023-02-13T11:53:30.453Z,11.80
2023-02-13T11:56:13.608Z,11.90
2023-02-13T11:58:48.508Z,12.00
2023-02-13T12:01:21.437Z,12.10
2023-02-13T12:04:25.487Z,12.20
2023-02-13T12:07:04.695Z,12.20
2023-02-13T12:09:38.494Z,12.30
2023-02-13T12:12:12.464Z,12.30
2023-02-13T12:14:51.486Z,12.30
2023-02-13T12:17:32.357Z,12.40
2023-02-13T12:20:00.197Z,12.50
2023-02-13T12:23:07.471Z,12.50
2023-02-13T12:25:52.191Z,12.60
2023-02-13T12:28:47.469Z,12.60
2023-02-13T12:31:31.802Z,12.70
2023-02-13T12:34:08.530Z,12.70
2023-02-13T12:36:53.917Z,12.60
2023-02-13T12:39:40.599Z,12.60
2023-02-13T12:42:37.503Z,12.60
2023-02-13T12:45:16.593Z,12.60
2023-02-13T12:48:28.676Z,12.60
2023-02-13T12:51:15.401Z,12.60
2023-02-13T12:54:00.529Z,12.60
2023-02-13T12:56:33.155Z,12.60
2023-02-13T12:59:30.614Z,12.70
2023-02-13T13:02:18.749Z,12.80
2023-02-13T13:05:26.589Z,12.90
2023-02-13T13:08:22.625Z,12.80
2023-02-13T13:11:14.610Z,12.90
2023-02-13T13:13:47.335Z,12.90
2023-02-13T13:16:23.643Z,12.90
2023-02-13T13:19:26.586Z,12.80
2023-02-13T13:22:18.831Z,12.80
2023-02-13T13:25:08.162Z,12.60
2023-02-13T13:27:50.661Z,12.50
2023-02-13T13:30:26.288Z,12.40
2023-02-13T13:33:24.620Z,12.30
2023-02-13T13:36:03.896Z,12.20
2023-02-13T13:38:42.831Z,12.10
2023-02-13T13:41:25.593Z,12.10
2023-02-13T13:44:30.468Z,12.00
2023-02-13T13:47:12.652Z,12.00
2023-02-13T13:50:00.666Z,11.90
2023-02-13T13:52:36.756Z,11.90
2023-02-13T13:55:10.659Z,11.90
2023-02-13T13:57:46.695Z,11.80
2023-02-13T14:00:14.478Z,11.70
2023-02-13T14:02:53.686Z,11.70
2023-02-13T14:05:30.790Z,11.60
2023-02-13T14:08:10.732Z,11.50
2023-02-13T14:10:57.751Z,11.50
2023-02-13T14:13:44.684Z,11.40
2023-02-13T14:16:12.310Z,11.40
2023-02-13T14:18:52.697Z,11.30
2023-02-13T14:21:23.776Z,11.30
2023-02-13T14:23:59.701Z,11.30
2023-02-13T14:26:34.392Z,11.20
2023-02-13T14:29:18.680Z,11.30
2023-02-13T14:31:57.201Z,11.20
2023-02-13T14:34:36.667Z,11.10
2023-02-13T14:37:21.012Z,11.10
2023-02-13T14:40:21.708Z,11.10
2023-02-13T14:42:56.510Z,11.10
2023-02-13T14:45:34.737Z,11.10
2023-02-13T14:48:13.765Z,11.10
2023-02-13T14:50:58.983Z,11.10
2023-02-13T14:54:00.047Z,11.00
2023-02-13T14:56:34.760Z,11.00
2023-02-13T14:59:17.771Z,11.00
2023-02-13T15:02:03.752Z,11.00
2023-02-13T15:04:45.824Z,11.00
2023-02-13T15:07:29.937Z,10.90
2023-02-13T15:10:11.737Z,10.90
2023-02-13T15:12:38.634Z,10.90
2023-02-13T15:15:33.819Z,10.80
2023-02-13T15:18:08.680Z,10.80
2023-02-13T15:20:44.779Z,10.80
2023-02-13T15:23:32.545Z,10.80
2023-02-13T15:26:06.812Z,10.70
2023-02-13T15:28:35.573Z,10.70
2023-02-13T15:31:15.878Z,10.70
2023-02-13T15:33:46.441Z,10.60
2023-02-13T15:36:25.867Z,10.60
2023-02-13T15:39:26.793Z,10.60
2023-02-13T15:42:07.120Z,10.50
2023-02-13T15:44:39.712Z,10.50
2023-02-13T15:47:20.790Z,10.40
2023-02-13T15:49:50.360Z,10.40
2023-02-13T15:52:36.010Z,10.30
2023-02-13T15:55:03.300Z,10.30
2023-02-13T15:57:33.042Z,10.20
2023-02-13T16:00:07.911Z,10.20
2023-02-13T16:02:49.889Z,10.20
2023-02-13T16:05:26.503Z,10.20
2023-02-13T16:08:31.105Z,10.10
2023-02-13T16:11:16.149Z,10.00
2023-02-13T16:14:07.851Z,10.00
2023-02-13T16:16:50.930Z,10.00
2023-02-13T16:19:46.979Z,9.90
2023-02-13T16:22:16.631Z,9.90
2023-02-13T16:24:58.861Z,9.70
2023-02-13T16:27:34.846Z,9.70
2023-02-13T16:30:11.929Z,9.70
2023-02-13T16:32:38.937Z,9.60
2023-02-13T16:35:46.136Z,9.60
2023-02-13T16:38:33.014Z,9.50
2023-02-13T16:41:28.933Z,9.40
2023-02-13T16:44:06.945Z,9.30
2023-02-13T16:46:40.739Z,9.30
2023-02-13T16:49:16.898Z,9.20
2023-02-13T16:52:07.838Z,9.10
2023-02-13T16:55:16.078Z,9.10
2023-02-13T16:57:44.390Z,9.00
2023-02-13T17:00:28.960Z,8.90
2023-02-13T17:02:55.787Z,8.80
2023-02-13T17:05:25.213Z,8.80
2023-02-13T17:08:03.044Z,8.70
2023-02-13T17:10:33.589Z,8.70
2023-02-13T17:13:17.918Z,8.60
2023-02-13T17:15:47.727Z,8.60
2023-02-13T17:18:21.089Z,8.50
2023-02-13T17:20:49.559Z,8.50
2023-02-13T17:23:20.808Z,8.40
2023-02-13T17:25:56.054Z,8.40
2023-02-13T17:28:26.859Z,8.30
2023-02-13T17:31:03.111Z,8.20
2023-02-13T17:33:32.269Z,8.20
2023-02-13T17:35:59.177Z,8.20
2023-02-13T17:38:31.926Z,8.20
2023-02-13T17:40:59.205Z,8.10
2023-02-13T17:43:34.308Z,8.10
2023-02-13T17:46:01.580Z,8.00
2023-02-13T17:48:28.441Z,8.00
2023-02-13T17:51:02.137Z,8.00
2023-02-13T17:53:30.222Z,8.00
2023-02-13T17:55:57.085Z,7.90
2023-02-13T17:58:31.092Z,7.90
2023-02-13T18:00:58.416Z,7.80
2023-02-13T18:03:25.475Z,7.80
2023-02-13T18:06:01.059Z,7.80
2023-02-13T18:08:27.938Z,7.70
2023-02-13T18:11:02.031Z,7.70
2023-02-13T18:13:28.943Z,7.70
2023-02-13T18:15:56.097Z,7.70
2023-02-13T18:18:30.084Z,7.70
2023-02-13T18:20:57.500Z,7.70
2023-02-13T18:23:24.738Z,7.70
2023-02-13T18:25:58.039Z,7.70
2023-02-13T18:28:25.061Z,7.70
2023-02-13T18:30:59.311Z,7.70
2023-02-13T18:33:33.317Z,7.70
2023-02-13T18:36:04.463Z,7.70
2023-02-13T18:38:38.065Z,7.70
2023-02-13T18:41:05.784Z,7.60
2023-02-13T18:43:40.064Z,7.70
2023-02-13T18:46:06.984Z,7.60
2023-02-13T18:48:34.412Z,7.60
2023-02-13T18:51:08.460Z,7.60
2023-02-13T18:53:35.378Z,7.60
2023-02-13T18:56:16.254Z,7.60
2023-02-13T18:58:43.106Z,7.60
2023-02-13T19:01:26.191Z,7.50
2023-02-13T19:03:54.423Z,7.50
2023-02-13T19:06:23.789Z,7.50
2023-02-13T19:08:57.257Z,7.40
2023-02-13T19:11:26.443Z,7.40
2023-02-13T19:13:55.220Z,7.40
2023-02-13T19:16:29.157Z,7.40
2023-02-13T19:19:05.169Z,7.30
2023-02-13T19:21:34.227Z,7.30
2023-02-13T19:24:03.717Z,7.30
2023-02-13T19:26:37.447Z,7.20
2023-02-13T19:29:04.388Z,7.20
2023-02-13T19:31:32.942Z,7.20
2023-02-13T19:34:07.188Z,7.20
2023-02-13T19:36:34.048Z,7.20
2023-02-13T19:39:13.468Z,7.20
2023-02-13T19:41:44.133Z,7.10
2023-02-13T19:44:11.380Z,7.10
2023-02-13T19:46:45.332Z,7.10
2023-02-13T19:49:12.159Z,7.10
2023-02-13T19:51:42.007Z,7.00
2023-02-13T19:54:17.250Z,7.00
2023-02-13T19:56:51.347Z,7.00
2023-02-13T19:59:18.129Z,7.00
2023-02-13T20:01:45.737Z,7.00
2023-02-13T20:04:19.424Z,7.00
2023-02-13T20:06:46.223Z,7.00
2023-02-13T20:09:14.084Z,7.00
2023-02-13T20:11:48.409Z,6.90
2023-02-13T20:14:15.409Z,6.90
2023-02-13T20:16:45.478Z,6.90
2023-02-13T20:19:20.204Z,6.90
2023-02-13T20:21:53.228Z,6.90
2023-02-13T20:24:20.436Z,6.80
2023-02-13T20:26:47.453Z,6.80
2023-02-13T20:29:21.544Z,6.70
2023-02-13T20:31:48.447Z,6.70
2023-02-13T20:34:15.372Z,6.70
2023-02-13T20:36:48.248Z,6.70
2023-02-13T20:39:15.165Z,6.70
2023-02-13T20:41:48.221Z,6.70
2023-02-13T20:44:23.118Z,6.60
2023-02-13T20:46:51.020Z,6.60
2023-02-13T20:49:21.785Z,6.60
2023-02-13T20:51:55.567Z,6.50
2023-02-13T20:54:22.575Z,6.50
2023-02-13T20:56:49.374Z,6.40
2023-02-13T20:59:22.289Z,6.40
2023-02-13T21:01:57.296Z,6.40
2023-02-13T21:04:30.327Z,6.40
2023-02-13T21:06:57.190Z,6.40
2023-02-13T21:09:30.292Z,6.30
2023-02-13T21:11:57.006Z,6.30
2023-02-13T21:14:30.310Z,6.30
2023-02-13T21:17:03.280Z,6.30
2023-02-13T21:19:37.295Z,6.30
2023-02-13T21:22:13.271Z,6.30
2023-02-13T21:24:48.473Z,6.20
2023-02-13T21:27:15.308Z,6.20
2023-02-13T21:29:42.027Z,6.20
2023-02-13T21:32:19.355Z,6.20
2023-02-13T21:34:46.203Z,6.20
2023-02-13T21:37:13.144Z,6.10
2023-02-13T21:39:46.471Z,6.10
2023-02-13T21:42:14.651Z,6.10
2023-02-13T21:44:41.493Z,6.00
2023-02-13T21:47:14.353Z,6.00
2023-02-13T21:49:47.512Z,6.00
2023-02-13T21:52:14.345Z,6.00
2023-02-13T21:54:41.217Z,6.00
2023-02-13T21:57:14.371Z,5.90
2023-02-13T21:59:41.206Z,5.90
2023-02-13T22:02:16.485Z,5.90
2023-02-13T22:04:43.543Z,5.90
2023-02-13T22:07:23.405Z,5.90
2023-02-13T22:09:50.372Z,5.80
2023-02-13T22:12:17.265Z,5.80
2023-02-13T22:14:50.385Z,5.90
2023-02-13T22:17:22.325Z,5.90
2023-02-13T22:19:55.395Z,5.90
2023-02-13T22:22:29.716Z,5.90
2023-02-13T22:24:56.557Z,5.90
2023-02-13T22:27:23.307Z,5.90
2023-02-13T22:29:57.531Z,5.90
2023-02-13T22:32:24.359Z,5.90
2023-02-13T22:34:57.450Z,5.90
2023-02-13T22:37:24.473Z,5.90
2023-02-13T22:39:57.443Z,5.90
2023-02-13T22:42:24.250Z,5.90
2023-02-13T22:44:57.525Z,5.90
2023-02-13T22:47:31.463Z,5.90
2023-02-13T22:50:04.450Z,5.90
2023-02-13T22:52:37.421Z,5.90
2023-02-13T22:55:04.468Z,5.90
2023-02-13T22:57:37.475Z,5.80
2023-02-13T23:00:10.210Z,5.80
2023-02-13T23:02:43.525Z,5.80
2023-02-13T23:05:10.797Z,5.80
2023-02-13T23:07:49.489Z,5.70
2023-02-13T23:10:16.337Z,5.70
2023-02-13T23:12:45.619Z,5.60
2023-02-13T23:15:21.502Z,5.60
2023-02-13T23:18:06.892Z,5.60
2023-02-13T23:20:40.476Z,5.60
2023-02-13T23:23:10.812Z,5.50
2023-02-13T23:25:44.556Z,5.50
2023-02-13T23:28:20.577Z,5.50
2023-02-13T23:30:53.581Z,5.40
2023-02-13T23:33:26.585Z,5.40
2023-02-13T23:36:00.553Z,5.40
2023-02-13T23:38:27.529Z,5.40
2023-02-13T23:41:00.745Z,5.30
2023-02-13T23:43:27.661Z,5.30
2023-02-13T23:45:54.521Z,5.30
2023-02-13T23:48:27.588Z,5.30
2023-02-13T23:50:54.356Z,5.30
2023-02-13T23:53:27.592Z,5.30
2023-02-13T23:56:01.628Z,5.30
2023-02-13T23:58:28.420Z,5.30
